createdAt,value
2018-07-24T00:00:08.234Z,14.45
2018-07-24T00:02:38.006Z,13.95
2018-07-24T00:05:06.974Z,15.55
2018-07-24T00:07:35.866Z,14.58
2018-07-24T00:10:05.170Z,16.48
2018-07-24T00:12:34.154Z,15.60
2018-07-24T00:15:04.278Z,15.20
2018-07-24T00:17:33.175Z,16.27
2018-07-24T00:20:02.332Z,15.55
2018-07-24T00:22:31.270Z,15.83
2018-07-24T00:25:00.231Z,16.25
2018-07-24T00:27:29.159Z,14.68
2018-07-24T00:29:58.118Z,15.53
2018-07-24T00:32:27.233Z,16.60
2018-07-24T00:34:56.174Z,16.15
2018-07-24T00:37:24.805Z,15.68
2018-07-24T00:39:53.606Z,15.68
2018-07-24T00:42:22.526Z,16.07
2018-07-24T00:44:51.419Z,16.85
2018-07-24T00:47:20.351Z,17.15
2018-07-24T00:49:49.349Z,18.25
2018-07-24T00:52:18.263Z,15.30
2018-07-24T00:54:47.137Z,16.90
2018-07-24T00:57:16.038Z,16.85
2018-07-24T00:59:45.058Z,15.88
2018-07-24T01:02:13.981Z,19.15
2018-07-24T01:04:42.896Z,16.10
2018-07-24T01:07:11.846Z,16.15
2018-07-24T01:09:41.799Z,15.08
2018-07-24T01:12:10.722Z,16.70
2018-07-24T01:14:39.618Z,15.05
2018-07-24T01:17:08.541Z,16.25
2018-07-24T01:19:37.438Z,17.07
2018-07-24T01:22:06.357Z,17.67
2018-07-24T01:24:36.881Z,18.12
2018-07-24T01:27:05.789Z,17.45
2018-07-24T01:29:34.689Z,18.20
2018-07-24T01:32:03.607Z,17.48
2018-07-24T01:34:32.603Z,17.20
2018-07-24T01:37:01.768Z,15.83
2018-07-24T01:39:30.835Z,19.52
2018-07-24T01:41:59.771Z,17.07
2018-07-24T01:44:28.679Z,17.35
2018-07-24T01:46:57.647Z,16.70
2018-07-24T01:49:26.627Z,18.70
2018-07-24T01:51:55.611Z,18.07
2018-07-24T01:54:24.503Z,17.32
2018-07-24T01:56:53.706Z,19.48
2018-07-24T01:59:22.878Z,17.23
2018-07-24T02:01:52.162Z,16.87
2018-07-24T02:04:21.088Z,17.98
2018-07-24T02:06:50.022Z,17.82
2018-07-24T02:09:19.787Z,17.70
2018-07-24T02:11:48.734Z,18.42
2018-07-24T02:14:18.661Z,18.82
2018-07-24T02:16:47.705Z,18.45
2018-07-24T02:19:16.631Z,17.77
2018-07-24T02:21:45.641Z,18.32
2018-07-24T02:24:14.539Z,18.80
2018-07-24T02:26:44.382Z,16.93
2018-07-24T02:29:13.306Z,17.23
2018-07-24T02:31:42.322Z,19.57
2018-07-24T02:34:11.206Z,18.62
2018-07-24T02:36:40.127Z,18.17
2018-07-24T02:39:11.597Z,17.57
2018-07-24T02:41:40.562Z,18.10
2018-07-24T02:44:09.730Z,18.52
2018-07-24T02:46:38.709Z,19.35
2018-07-24T02:49:07.705Z,19.95
2018-07-24T02:51:36.627Z,18.85
2018-07-24T02:54:05.794Z,20.43
2018-07-24T02:56:34.761Z,19.05
2018-07-24T02:59:03.667Z,19.57
2018-07-24T03:01:32.294Z,20.68
2018-07-24T03:04:01.228Z,18.87
2018-07-24T03:06:30.174Z,18.60
2018-07-24T03:08:59.105Z,19.55
2018-07-24T03:11:28.052Z,22.25
2018-07-24T03:13:57.006Z,19.07
2018-07-24T03:16:25.983Z,18.27
2018-07-24T03:18:55.031Z,20.05
2018-07-24T03:21:23.954Z,18.92
2018-07-24T03:23:52.884Z,19.23
2018-07-24T03:26:21.802Z,20.20
2018-07-24T03:28:50.710Z,19.67
2018-07-24T03:31:19.635Z,21.52
2018-07-24T03:33:48.720Z,19.98
2018-07-24T03:36:17.798Z,19.35
2018-07-24T03:38:46.834Z,20.00
2018-07-24T03:41:15.810Z,19.25
2018-07-24T03:43:44.750Z,21.70
2018-07-24T03:46:13.734Z,19.60
2018-07-24T03:48:42.410Z,21.00
2018-07-24T03:51:11.309Z,22.73
2018-07-24T03:53:40.256Z,22.17
2018-07-24T03:56:09.443Z,19.45
2018-07-24T03:58:38.350Z,20.40
2018-07-24T04:01:07.269Z,21.17
2018-07-24T04:03:36.171Z,20.37
2018-07-24T04:06:05.251Z,20.50
2018-07-24T04:08:34.227Z,22.10
2018-07-24T04:11:03.142Z,20.85
2018-07-24T04:13:32.063Z,20.52
2018-07-24T04:16:02.108Z,19.40
2018-07-24T04:18:37.295Z,20.35
2018-07-24T04:21:06.610Z,19.92
2018-07-24T04:23:35.554Z,18.90
2018-07-24T04:26:04.460Z,20.40
2018-07-24T04:28:33.366Z,21.00
2018-07-24T04:31:02.366Z,18.25
2018-07-24T04:33:31.307Z,18.75
2018-07-24T04:36:00.415Z,18.45
2018-07-24T04:38:29.484Z,18.15
2018-07-24T04:40:58.554Z,19.67
2018-07-24T04:43:27.778Z,19.92
2018-07-24T04:45:56.767Z,17.12
2018-07-24T04:48:25.755Z,17.07
2018-07-24T04:50:55.167Z,17.75
2018-07-24T04:53:24.071Z,18.55
2018-07-24T04:55:52.986Z,17.77
2018-07-24T04:58:21.898Z,18.20
2018-07-24T05:00:50.861Z,19.25
2018-07-24T05:03:19.871Z,18.42
2018-07-24T05:05:48.782Z,17.73
2018-07-24T05:08:17.764Z,16.90
2018-07-24T05:10:46.673Z,16.77
2018-07-24T05:13:15.648Z,17.30
2018-07-24T05:15:44.638Z,16.07
2018-07-24T05:18:13.271Z,16.00
2018-07-24T05:20:42.078Z,17.73
2018-07-24T05:23:11.010Z,16.62
2018-07-24T05:25:39.941Z,17.73
2018-07-24T05:28:08.838Z,17.25
2018-07-24T05:30:37.745Z,16.07
2018-07-24T05:33:06.926Z,17.20
2018-07-24T05:35:35.818Z,16.67
2018-07-24T05:38:04.802Z,15.50
2018-07-24T05:40:33.739Z,17.77
2018-07-24T05:43:02.674Z,16.67
2018-07-24T05:45:31.687Z,15.98
2018-07-24T05:48:00.625Z,15.28
2018-07-24T05:50:29.618Z,16.65
2018-07-24T05:52:58.754Z,18.87
2018-07-24T05:55:27.742Z,17.15
2018-07-24T05:57:56.698Z,16.23
2018-07-24T06:00:26.026Z,15.53
2018-07-24T06:02:55.339Z,15.20
2018-07-24T06:05:24.303Z,16.05
2018-07-24T06:07:53.214Z,15.60
2018-07-24T06:10:22.261Z,14.87
2018-07-24T06:12:51.250Z,15.67
2018-07-24T06:15:20.190Z,14.90
2018-07-24T06:17:49.090Z,13.70
2018-07-24T06:20:18.062Z,15.72
2018-07-24T06:22:46.986Z,16.20
2018-07-24T06:25:15.924Z,15.53
2018-07-24T06:27:44.886Z,13.43
2018-07-24T06:30:13.830Z,15.97
2018-07-24T06:32:42.755Z,16.20
2018-07-24T06:35:11.955Z,14.20
2018-07-24T06:37:40.856Z,15.23
2018-07-24T06:40:09.842Z,13.93
2018-07-24T06:42:38.726Z,14.03
2018-07-24T06:45:07.651Z,14.50
2018-07-24T06:47:36.585Z,13.50
2018-07-24T06:50:05.541Z,14.73
2018-07-24T06:52:34.621Z,13.73
2018-07-24T06:55:03.611Z,13.47
2018-07-24T06:57:32.734Z,13.50
2018-07-24T07:00:01.932Z,15.23
2018-07-24T07:02:30.914Z,14.70
2018-07-24T07:04:59.599Z,13.50
2018-07-24T07:07:28.493Z,14.83
2018-07-24T07:09:57.462Z,14.13
2018-07-24T07:12:26.402Z,14.27
2018-07-24T07:14:55.317Z,14.10
2018-07-24T07:17:24.182Z,14.40
2018-07-24T07:19:53.121Z,13.70
2018-07-24T07:22:22.055Z,14.53
2018-07-24T07:24:51.066Z,14.47
2018-07-24T07:27:19.880Z,14.87
2018-07-24T07:29:48.786Z,15.67
2018-07-24T07:32:17.770Z,13.60
2018-07-24T07:34:46.586Z,15.37
2018-07-24T07:37:15.470Z,13.53
2018-07-24T07:39:44.366Z,15.40
2018-07-24T07:42:13.258Z,13.50
2018-07-24T07:44:42.170Z,13.60
2018-07-24T07:47:11.060Z,13.90
2018-07-24T07:49:39.947Z,13.33
2018-07-24T07:52:08.828Z,12.33
2018-07-24T07:54:37.709Z,12.93
2018-07-24T07:57:06.973Z,13.00
2018-07-24T07:59:35.874Z,12.80
2018-07-24T08:02:05.180Z,12.40
2018-07-24T08:04:34.130Z,13.70
2018-07-24T08:07:03.043Z,12.70
2018-07-24T08:09:32.108Z,13.07
2018-07-24T08:12:01.267Z,13.77
2018-07-24T08:14:31.065Z,12.00
2018-07-24T08:17:00.273Z,15.43
2018-07-24T08:19:29.304Z,13.77
2018-07-24T08:21:58.338Z,13.97
2018-07-24T08:24:27.489Z,13.83
2018-07-24T08:26:56.450Z,14.50
2018-07-24T08:29:25.288Z,14.40
2018-07-24T08:31:54.353Z,13.60
2018-07-24T08:34:23.365Z,14.77
2018-07-24T08:36:52.276Z,14.10
2018-07-24T08:39:21.198Z,12.83
2018-07-24T08:41:50.159Z,13.60
2018-07-24T08:44:19.046Z,13.43
2018-07-24T08:46:47.942Z,13.23
2018-07-24T08:49:16.852Z,21.13
2018-07-24T08:51:45.789Z,13.30
2018-07-24T08:54:14.825Z,12.43
2018-07-24T08:56:43.586Z,14.57
2018-07-24T08:59:12.490Z,14.30
2018-07-24T09:01:41.390Z,12.80
2018-07-24T09:04:10.273Z,12.93
2018-07-24T09:06:39.157Z,12.83
2018-07-24T09:09:10.003Z,12.20
2018-07-24T09:11:38.942Z,14.00
2018-07-24T09:14:07.852Z,14.93
2018-07-24T09:16:37.218Z,13.10
2018-07-24T09:19:06.127Z,12.40
2018-07-24T09:21:35.046Z,11.60
2018-07-24T09:24:03.967Z,12.77
2018-07-24T09:26:32.893Z,12.07
2018-07-24T09:29:01.842Z,13.43
2018-07-24T09:31:30.869Z,12.13
2018-07-24T09:33:59.768Z,10.97
2018-07-24T09:36:28.706Z,10.60
2018-07-24T09:38:57.693Z,10.53
2018-07-24T09:41:26.678Z,10.80
2018-07-24T09:43:56.415Z,11.90
2018-07-24T09:46:25.384Z,11.00
2018-07-24T09:48:54.282Z,11.23
2018-07-24T09:51:23.165Z,11.07
2018-07-24T09:53:52.055Z,10.33
2018-07-24T09:56:20.971Z,10.67
2018-07-24T09:58:50.106Z,9.60
2018-07-24T10:01:24.442Z,10.40
2018-07-24T10:03:53.722Z,10.77
2018-07-24T10:06:22.799Z,11.30
2018-07-24T10:08:51.917Z,9.17
2018-07-24T10:11:21.157Z,10.23
2018-07-24T10:13:50.383Z,12.13
2018-07-24T10:16:19.656Z,8.57
2018-07-24T10:18:49.236Z,13.17
2018-07-24T10:21:18.470Z,9.00
2018-07-24T10:23:47.402Z,8.50
2018-07-24T10:26:16.552Z,7.63
2018-07-24T10:28:45.660Z,8.73
2018-07-24T10:31:14.570Z,6.37
2018-07-24T10:33:43.442Z,6.40
2018-07-24T10:36:12.347Z,6.40
2018-07-24T10:38:41.374Z,5.77
2018-07-24T10:41:10.625Z,6.90
2018-07-24T10:43:40.646Z,6.40
2018-07-24T10:46:09.570Z,5.70
2018-07-24T10:48:38.471Z,5.80
2018-07-24T10:51:07.438Z,6.10
2018-07-24T10:53:36.364Z,5.63
2018-07-24T10:56:05.371Z,5.57
2018-07-24T10:58:34.322Z,5.67
2018-07-24T11:01:03.330Z,5.63
2018-07-24T11:03:32.283Z,5.83
2018-07-24T11:06:01.190Z,5.57
2018-07-24T11:08:30.228Z,5.30
2018-07-24T11:10:59.201Z,5.43
2018-07-24T11:13:28.375Z,5.37
2018-07-24T11:15:57.327Z,5.37
2018-07-24T11:18:25.953Z,5.57
2018-07-24T11:20:54.790Z,5.20
2018-07-24T11:23:23.668Z,5.70
2018-07-24T11:25:52.586Z,5.50
2018-07-24T11:28:21.500Z,4.80
2018-07-24T11:30:50.334Z,5.60
2018-07-24T11:33:19.224Z,5.40
2018-07-24T11:35:48.196Z,5.63
2018-07-24T11:38:17.059Z,7.93
2018-07-24T11:40:45.971Z,4.80
2018-07-24T11:43:14.856Z,4.97
2018-07-24T11:45:43.771Z,5.63
2018-07-24T11:48:12.717Z,10.93
2018-07-24T11:50:41.617Z,7.20
2018-07-24T11:53:10.555Z,5.47
2018-07-24T11:55:39.430Z,5.23
2018-07-24T11:58:08.754Z,4.90
2018-07-24T12:00:37.642Z,5.67
2018-07-24T12:03:06.736Z,6.03
2018-07-24T12:05:35.621Z,6.33
2018-07-24T12:08:04.235Z,5.60
2018-07-24T12:10:33.070Z,6.10
2018-07-24T12:13:02.010Z,6.00
2018-07-24T12:15:30.970Z,5.43
2018-07-24T12:17:59.874Z,7.60
2018-07-24T12:20:28.806Z,4.77
2018-07-24T12:22:57.742Z,5.20
2018-07-24T12:25:26.645Z,5.53
2018-07-24T12:27:55.720Z,5.67
2018-07-24T12:30:24.585Z,5.40
2018-07-24T12:32:53.610Z,5.63
2018-07-24T12:35:22.494Z,5.87
2018-07-24T12:37:51.386Z,6.27
2018-07-24T12:40:20.273Z,8.50
2018-07-24T12:42:49.173Z,6.07
2018-07-24T12:45:18.051Z,6.13
2018-07-24T12:47:47.068Z,6.13
2018-07-24T12:50:15.993Z,8.07
2018-07-24T12:52:44.892Z,5.83
2018-07-24T12:55:13.797Z,5.50
2018-07-24T12:57:42.657Z,5.07
2018-07-24T13:00:11.567Z,6.60
2018-07-24T13:02:40.478Z,5.30
2018-07-24T13:05:09.366Z,5.80
2018-07-24T13:07:38.275Z,5.40
2018-07-24T13:10:07.187Z,5.87
2018-07-24T13:12:39.343Z,6.13
2018-07-24T13:15:08.883Z,5.33
2018-07-24T13:17:38.002Z,5.90
2018-07-24T13:20:07.050Z,5.80
2018-07-24T13:22:36.134Z,5.40
2018-07-24T13:25:05.260Z,5.07
2018-07-24T13:27:34.204Z,7.30
2018-07-24T13:30:03.142Z,5.20
2018-07-24T13:32:32.181Z,13.80
2018-07-24T13:35:01.083Z,4.90
2018-07-24T13:37:29.772Z,4.73
2018-07-24T13:39:58.701Z,5.50
2018-07-24T13:42:27.836Z,4.20
2018-07-24T13:44:56.799Z,5.07
2018-07-24T13:47:25.885Z,5.53
2018-07-24T13:49:54.816Z,4.80
2018-07-24T13:52:23.701Z,5.23
2018-07-24T13:54:52.570Z,5.00
2018-07-24T13:57:21.582Z,4.50
2018-07-24T13:59:50.459Z,4.53
2018-07-24T14:02:19.359Z,6.90
2018-07-24T14:04:48.248Z,5.80
2018-07-24T14:07:17.148Z,4.47
2018-07-24T14:09:46.033Z,4.77
2018-07-24T14:12:14.958Z,4.87
2018-07-24T14:14:43.814Z,4.53
2018-07-24T14:17:12.719Z,4.97
2018-07-24T14:19:41.591Z,4.73
2018-07-24T14:22:10.682Z,4.97
2018-07-24T14:24:39.583Z,4.53
2018-07-24T14:27:08.654Z,4.57
2018-07-24T14:29:37.570Z,5.03
2018-07-24T14:32:06.458Z,4.50
2018-07-24T14:34:35.338Z,4.30
2018-07-24T14:37:04.240Z,5.20
2018-07-24T14:39:33.149Z,4.50
2018-07-24T14:42:02.044Z,4.53
2018-07-24T14:44:30.962Z,4.70
2018-07-24T14:46:59.891Z,4.20
2018-07-24T14:49:28.955Z,4.53
2018-07-24T14:51:57.862Z,4.17
2018-07-24T14:54:26.878Z,4.73
2018-07-24T14:56:55.766Z,4.80
2018-07-24T14:59:24.673Z,5.10
2018-07-24T15:01:53.521Z,4.33
2018-07-24T15:04:22.410Z,4.37
2018-07-24T15:06:51.307Z,4.20
2018-07-24T15:09:20.263Z,4.67
2018-07-24T15:11:49.171Z,4.23
2018-07-24T15:14:18.045Z,4.30
2018-07-24T15:16:46.918Z,4.50
2018-07-24T15:19:15.819Z,4.40
2018-07-24T15:21:44.717Z,5.03
2018-07-24T15:24:13.827Z,4.40
2018-07-24T15:26:42.733Z,4.70
2018-07-24T15:29:11.605Z,4.40
2018-07-24T15:31:40.496Z,5.13
2018-07-24T15:34:09.475Z,4.63
2018-07-24T15:36:38.318Z,4.20
2018-07-24T15:39:10.975Z,4.40
2018-07-24T15:41:39.881Z,4.40
2018-07-24T15:44:08.805Z,5.40
2018-07-24T15:46:37.712Z,4.87
2018-07-24T15:49:06.618Z,5.00
2018-07-24T15:51:35.414Z,7.33
2018-07-24T15:54:04.586Z,4.80
2018-07-24T15:56:33.484Z,4.33
2018-07-24T15:59:02.372Z,4.70
2018-07-24T16:01:31.459Z,4.40
2018-07-24T16:04:00.373Z,4.17
2018-07-24T16:06:29.281Z,4.30
2018-07-24T16:08:58.210Z,4.87
2018-07-24T16:11:27.125Z,4.60
2018-07-24T16:13:56.027Z,4.67
2018-07-24T16:16:24.926Z,3.80
2018-07-24T16:18:53.979Z,4.43
2018-07-24T16:21:22.895Z,4.73
2018-07-24T16:23:51.799Z,4.30
2018-07-24T16:26:20.696Z,4.57
2018-07-24T16:28:49.542Z,6.43
2018-07-24T16:31:18.429Z,4.50
2018-07-24T16:33:47.301Z,4.00
2018-07-24T16:36:16.202Z,4.70
2018-07-24T16:38:45.086Z,5.40
2018-07-24T16:41:13.974Z,4.40
2018-07-24T16:43:43.756Z,4.33
2018-07-24T16:46:12.653Z,4.67
2018-07-24T16:48:41.518Z,4.43
2018-07-24T16:51:10.472Z,5.23
2018-07-24T16:53:39.366Z,4.17
2018-07-24T16:56:08.298Z,4.30
2018-07-24T16:58:37.106Z,4.57
2018-07-24T17:01:05.987Z,3.93
2018-07-24T17:03:34.900Z,4.57
2018-07-24T17:06:03.791Z,4.03
2018-07-24T17:08:32.675Z,4.17
2018-07-24T17:11:01.575Z,4.10
2018-07-24T17:13:30.644Z,4.30
2018-07-24T17:15:59.646Z,3.93
2018-07-24T17:18:28.682Z,4.90
2018-07-24T17:20:57.732Z,4.83
2018-07-24T17:23:26.657Z,4.07
2018-07-24T17:25:55.566Z,3.87
2018-07-24T17:28:24.450Z,4.23
2018-07-24T17:30:53.327Z,4.43
2018-07-24T17:33:22.203Z,4.30
2018-07-24T17:35:51.195Z,4.70
2018-07-24T17:38:20.059Z,4.60
2018-07-24T17:40:48.973Z,4.40
2018-07-24T17:43:17.871Z,4.90
2018-07-24T17:45:46.915Z,5.63
2018-07-24T17:48:15.851Z,9.53
2018-07-24T17:50:44.649Z,5.27
2018-07-24T17:53:13.607Z,4.37
2018-07-24T17:55:42.479Z,5.60
2018-07-24T17:58:11.374Z,4.37
2018-07-24T18:00:40.278Z,8.40
2018-07-24T18:03:09.196Z,4.77
2018-07-24T18:05:38.060Z,4.30
2018-07-24T18:08:06.982Z,5.47
2018-07-24T18:10:35.894Z,4.60
2018-07-24T18:13:04.887Z,4.50
2018-07-24T18:15:33.856Z,4.97
2018-07-24T18:18:02.649Z,5.07
2018-07-24T18:20:31.562Z,4.97
2018-07-24T18:23:00.510Z,4.90
2018-07-24T18:25:29.698Z,4.30
2018-07-24T18:27:58.771Z,4.57
2018-07-24T18:30:27.750Z,5.20
2018-07-24T18:32:56.782Z,4.80
2018-07-24T18:35:25.723Z,5.77
2018-07-24T18:37:54.712Z,5.00
2018-07-24T18:40:23.573Z,4.60
2018-07-24T18:42:52.527Z,4.60
2018-07-24T18:45:21.435Z,6.40
2018-07-24T18:47:50.331Z,17.73
2018-07-24T18:50:19.253Z,5.43
2018-07-24T18:52:48.166Z,5.20
2018-07-24T18:55:17.054Z,5.33
2018-07-24T18:57:45.957Z,5.03
2018-07-24T19:00:14.863Z,4.63
2018-07-24T19:02:43.753Z,5.27
2018-07-24T19:05:12.711Z,4.97
2018-07-24T19:07:41.573Z,4.87
2018-07-24T19:10:10.463Z,5.30
2018-07-24T19:12:39.367Z,5.00
2018-07-24T19:15:08.643Z,5.37
2018-07-24T19:17:37.540Z,5.20
2018-07-24T19:20:06.439Z,5.73
2018-07-24T19:22:35.317Z,5.87
2018-07-24T19:25:04.279Z,6.47
2018-07-24T19:27:33.165Z,7.00
2018-07-24T19:30:02.098Z,6.63
2018-07-24T19:32:31.022Z,6.80
2018-07-24T19:35:00.282Z,6.93
2018-07-24T19:37:29.126Z,10.60
2018-07-24T19:39:58.051Z,9.30
2018-07-24T19:42:26.977Z,13.00
2018-07-24T19:44:55.858Z,7.10
2018-07-24T19:47:24.789Z,6.47
2018-07-24T19:49:53.741Z,9.07
2018-07-24T19:52:22.746Z,7.63
2018-07-24T19:54:51.670Z,8.17
2018-07-24T19:57:20.622Z,7.97
2018-07-24T19:59:49.554Z,7.20
2018-07-24T20:02:19.550Z,7.70
2018-07-24T20:04:48.719Z,8.93
2018-07-24T20:07:17.611Z,7.70
2018-07-24T20:09:49.588Z,8.27
2018-07-24T20:12:19.288Z,9.30
2018-07-24T20:14:48.181Z,8.90
2018-07-24T20:17:17.302Z,10.33
2018-07-24T20:19:46.241Z,8.00
2018-07-24T20:22:15.290Z,7.57
2018-07-24T20:24:44.418Z,9.43
2018-07-24T20:27:13.723Z,8.17
2018-07-24T20:29:43.250Z,9.33
2018-07-24T20:32:12.315Z,7.93
2018-07-24T20:34:42.307Z,7.10
2018-07-24T20:37:11.195Z,8.70
2018-07-24T20:39:40.275Z,8.67
2018-07-24T20:42:09.182Z,9.67
2018-07-24T20:44:38.118Z,8.83
2018-07-24T20:47:07.042Z,8.43
2018-07-24T20:49:35.986Z,8.07
2018-07-24T20:52:04.943Z,8.50
2018-07-24T20:54:33.889Z,7.93
2018-07-24T20:57:02.920Z,8.60
2018-07-24T20:59:31.858Z,9.30
2018-07-24T21:02:00.753Z,9.40
2018-07-24T21:04:29.698Z,8.73
2018-07-24T21:06:58.727Z,8.77
2018-07-24T21:09:27.691Z,8.83
2018-07-24T21:11:56.635Z,9.10
2018-07-24T21:14:25.550Z,9.70
2018-07-24T21:16:54.513Z,9.60
2018-07-24T21:19:23.406Z,14.33
2018-07-24T21:21:52.294Z,9.33
2018-07-24T21:24:21.174Z,9.10
2018-07-24T21:26:50.082Z,9.77
2018-07-24T21:29:19.105Z,9.10
2018-07-24T21:31:47.998Z,10.10
2018-07-24T21:34:16.882Z,9.40
2018-07-24T21:36:45.778Z,10.07
2018-07-24T21:39:14.665Z,10.40
2018-07-24T21:41:43.587Z,8.20
2018-07-24T21:44:12.477Z,9.90
2018-07-24T21:46:41.362Z,9.30
2018-07-24T21:49:09.976Z,9.60
2018-07-24T21:51:38.484Z,10.57
2018-07-24T21:54:07.287Z,10.90
2018-07-24T21:56:36.162Z,10.43
2018-07-24T21:59:05.090Z,10.43
2018-07-24T22:01:34.008Z,8.87
2018-07-24T22:04:02.894Z,10.27
2018-07-24T22:06:31.802Z,10.90
2018-07-24T22:09:00.819Z,10.40
2018-07-24T22:11:29.662Z,11.27
2018-07-24T22:13:58.615Z,11.03
2018-07-24T22:16:27.538Z,10.78
2018-07-24T22:18:57.254Z,10.43
2018-07-24T22:21:26.194Z,10.37
2018-07-24T22:23:55.112Z,11.03
2018-07-24T22:26:23.742Z,10.00
2018-07-24T22:28:52.534Z,11.07
2018-07-24T22:31:21.442Z,11.47
2018-07-24T22:33:50.322Z,9.97
2018-07-24T22:36:19.237Z,12.07
2018-07-24T22:38:47.850Z,10.10
2018-07-24T22:41:16.810Z,10.73
2018-07-24T22:43:45.739Z,10.93
2018-07-24T22:46:14.652Z,11.10
2018-07-24T22:48:43.533Z,10.87
2018-07-24T22:51:12.410Z,10.50
2018-07-24T22:53:41.340Z,12.50
2018-07-24T22:56:10.426Z,12.40
2018-07-24T22:58:39.659Z,11.33
2018-07-24T23:01:08.723Z,11.83
2018-07-24T23:03:37.641Z,12.10
2018-07-24T23:06:06.562Z,10.60
2018-07-24T23:08:35.454Z,12.30
2018-07-24T23:11:04.369Z,11.18
2018-07-24T23:13:33.286Z,12.28
2018-07-24T23:16:02.222Z,10.90
2018-07-24T23:18:31.214Z,11.27
2018-07-24T23:21:00.122Z,11.25
2018-07-24T23:23:29.071Z,10.32
2018-07-24T23:25:58.002Z,11.75
2018-07-24T23:28:26.930Z,10.28
2018-07-24T23:30:55.826Z,11.30
2018-07-24T23:33:25.571Z,11.63
2018-07-24T23:35:54.618Z,12.28
2018-07-24T23:38:23.542Z,10.70
2018-07-24T23:40:52.502Z,11.20
2018-07-24T23:43:21.407Z,11.13
2018-07-24T23:45:50.315Z,10.75
2018-07-24T23:48:19.233Z,10.53
2018-07-24T23:50:48.160Z,10.90
2018-07-24T23:53:17.372Z,10.65
2018-07-24T23:55:46.307Z,10.33
2018-07-24T23:58:15.249Z,10.67
